createdAt,value
2022-09-09T00:00:27.362Z,12.10
2022-09-09T00:03:12.260Z,12.10
2022-09-09T00:05:53.762Z,12.10
2022-09-09T00:08:25.601Z,12.10
2022-09-09T00:11:02.108Z,12.10
2022-09-09T00:13:40.298Z,12.10
2022-09-09T00:16:18.372Z,12.20
2022-09-09T00:18:58.573Z,12.20
2022-09-09T00:21:36.508Z,12.20
2022-09-09T00:24:45.539Z,12.20
2022-09-09T00:27:30.362Z,12.20
2022-09-09T00:30:15.222Z,12.20
2022-09-09T00:32:42.267Z,12.20
2022-09-09T00:35:24.916Z,12.20
2022-09-09T00:37:57.489Z,12.20
2022-09-09T00:40:32.648Z,12.20
2022-09-09T00:43:03.245Z,12.20
2022-09-09T00:46:12.614Z,12.30
2022-09-09T00:49:08.613Z,12.30
2022-09-09T00:51:54.015Z,12.30
2022-09-09T00:54:41.755Z,12.40
2022-09-09T00:57:32.263Z,12.40
2022-09-09T01:00:18.432Z,12.40
2022-09-09T01:03:11.731Z,12.40
2022-09-09T01:05:51.894Z,12.40
2022-09-09T01:08:41.123Z,12.40
2022-09-09T01:11:16.990Z,12.40
2022-09-09T01:13:48.836Z,12.50
2022-09-09T01:16:18.619Z,12.40
2022-09-09T01:18:52.406Z,12.40
2022-09-09T01:21:28.592Z,12.40
2022-09-09T01:24:01.891Z,12.40
2022-09-09T01:26:37.921Z,12.40
2022-09-09T01:29:10.413Z,12.40
2022-09-09T01:31:42.042Z,12.40
2022-09-09T01:34:15.203Z,12.40
2022-09-09T01:37:06.471Z,12.50
2022-09-09T01:39:37.200Z,12.50
2022-09-09T01:42:07.768Z,12.50
2022-09-09T01:44:36.715Z,12.50
2022-09-09T01:47:05.070Z,12.60
2022-09-09T01:49:34.019Z,12.60
2022-09-09T01:52:01.257Z,12.60
2022-09-09T01:54:32.810Z,12.70
2022-09-09T01:57:04.009Z,12.70
2022-09-09T01:59:52.326Z,12.80
2022-09-09T02:02:34.221Z,12.80
2022-09-09T02:05:44.661Z,12.90
2022-09-09T02:08:25.587Z,12.90
2022-09-09T02:11:17.228Z,13.00
2022-09-09T02:13:48.328Z,13.00
2022-09-09T02:16:22.537Z,13.10
2022-09-09T02:18:58.715Z,13.10
2022-09-09T02:21:29.589Z,13.10
2022-09-09T02:24:00.108Z,13.10
2022-09-09T02:26:29.121Z,13.10
2022-09-09T02:28:58.640Z,13.10
2022-09-09T02:31:26.987Z,13.20
2022-09-09T02:33:58.585Z,13.20
2022-09-09T02:36:30.130Z,13.20
2022-09-09T02:38:57.747Z,13.20
2022-09-09T02:41:32.168Z,13.20
2022-09-09T02:44:00.971Z,13.20
2022-09-09T02:46:55.121Z,13.30
2022-09-09T02:49:41.589Z,13.30
2022-09-09T02:52:16.416Z,13.30
2022-09-09T02:54:44.598Z,13.30
2022-09-09T02:57:26.745Z,13.30
2022-09-09T02:59:54.593Z,13.30
2022-09-09T03:02:23.093Z,13.40
2022-09-09T03:04:52.840Z,13.40
2022-09-09T03:07:21.176Z,13.40
2022-09-09T03:09:49.544Z,13.40
2022-09-09T03:12:17.372Z,13.40
2022-09-09T03:14:46.467Z,13.40
2022-09-09T03:17:13.653Z,13.40
2022-09-09T03:19:42.050Z,13.40
2022-09-09T03:22:12.423Z,13.40
2022-09-09T03:24:39.377Z,13.50
2022-09-09T03:27:08.478Z,13.50
2022-09-09T03:29:36.074Z,13.50
2022-09-09T03:32:04.499Z,13.50
2022-09-09T03:34:33.014Z,13.50
2022-09-09T03:36:59.930Z,13.50
2022-09-09T03:39:27.440Z,13.50
2022-09-09T03:41:55.658Z,13.50
2022-09-09T03:44:23.647Z,13.60
2022-09-09T03:46:51.306Z,13.60
2022-09-09T03:49:21.238Z,13.60
2022-09-09T03:51:48.827Z,13.60
2022-09-09T03:54:16.414Z,13.60
2022-09-09T03:56:44.693Z,13.60
2022-09-09T03:59:12.307Z,13.60
2022-09-09T04:01:41.172Z,13.60
2022-09-09T04:04:09.879Z,13.60
2022-09-09T04:06:37.426Z,13.60
2022-09-09T04:09:04.988Z,13.60
2022-09-09T04:11:32.735Z,13.60
2022-09-09T04:13:59.607Z,13.60
2022-09-09T04:16:26.993Z,13.60
2022-09-09T04:18:54.230Z,13.70
2022-09-09T04:21:22.426Z,13.70
2022-09-09T04:23:49.312Z,13.70
2022-09-09T04:26:16.208Z,13.70
2022-09-09T04:28:43.205Z,13.70
2022-09-09T04:31:23.831Z,13.80
2022-09-09T04:33:52.014Z,13.70
2022-09-09T04:36:20.791Z,13.80
2022-09-09T04:38:50.079Z,13.80
2022-09-09T04:41:17.625Z,13.80
2022-09-09T04:43:45.697Z,13.80
2022-09-09T04:46:13.144Z,13.90
2022-09-09T04:48:41.110Z,13.90
2022-09-09T04:51:13.153Z,13.90
2022-09-09T04:53:41.423Z,13.90
2022-09-09T04:56:14.712Z,13.90
2022-09-09T04:58:46.553Z,13.90
2022-09-09T05:01:19.244Z,13.90
2022-09-09T05:03:47.285Z,14.00
2022-09-09T05:06:17.969Z,14.00
2022-09-09T05:08:45.605Z,14.00
2022-09-09T05:11:21.087Z,14.00
2022-09-09T05:13:48.399Z,14.00
2022-09-09T05:16:15.917Z,14.00
2022-09-09T05:18:44.933Z,14.10
2022-09-09T05:21:13.964Z,14.00
2022-09-09T05:23:42.899Z,14.00
2022-09-09T05:26:17.649Z,14.00
2022-09-09T05:28:46.427Z,14.00
2022-09-09T05:31:14.962Z,14.00
2022-09-09T05:33:44.110Z,14.00
2022-09-09T05:36:16.557Z,14.00
2022-09-09T05:38:45.068Z,14.00
2022-09-09T05:41:13.679Z,14.00
2022-09-09T05:43:40.682Z,14.00
2022-09-09T05:46:10.660Z,14.10
2022-09-09T05:48:42.754Z,14.10
2022-09-09T05:51:13.768Z,14.10
2022-09-09T05:53:41.335Z,14.10
2022-09-09T05:56:11.736Z,14.20
2022-09-09T05:58:41.797Z,14.20
2022-09-09T06:01:10.924Z,14.10
2022-09-09T06:03:40.622Z,14.10
2022-09-09T06:06:14.038Z,14.10
2022-09-09T06:08:45.294Z,14.10
2022-09-09T06:11:25.746Z,14.10
2022-09-09T06:13:55.670Z,14.10
2022-09-09T06:16:25.820Z,14.10
2022-09-09T06:18:56.070Z,14.10
2022-09-09T06:21:26.046Z,14.20
2022-09-09T06:23:57.783Z,14.20
2022-09-09T06:26:39.725Z,14.20
2022-09-09T06:29:10.097Z,14.20
2022-09-09T06:31:39.431Z,14.20
2022-09-09T06:34:09.227Z,14.30
2022-09-09T06:36:42.145Z,14.30
2022-09-09T06:39:14.715Z,14.30
2022-09-09T06:41:44.128Z,14.30
2022-09-09T06:44:12.917Z,14.30
2022-09-09T06:46:40.968Z,14.40
2022-09-09T06:49:14.189Z,14.40
2022-09-09T06:51:44.165Z,14.40
2022-09-09T06:54:13.302Z,14.60
2022-09-09T06:56:44.184Z,14.60
2022-09-09T06:59:13.201Z,14.70
2022-09-09T07:01:43.278Z,14.90
2022-09-09T07:04:12.215Z,14.90
2022-09-09T07:06:44.159Z,14.90
2022-09-09T07:09:16.200Z,14.80
2022-09-09T07:11:52.644Z,14.90
2022-09-09T07:14:21.958Z,14.90
2022-09-09T07:16:49.657Z,15.00
2022-09-09T07:19:17.973Z,15.10
2022-09-09T07:21:46.563Z,15.10
2022-09-09T07:24:13.966Z,15.10
2022-09-09T07:26:41.496Z,15.10
2022-09-09T07:29:09.851Z,15.20
2022-09-09T07:31:41.048Z,15.30
2022-09-09T07:34:09.900Z,15.20
2022-09-09T07:36:40.321Z,15.10
2022-09-09T07:39:18.649Z,15.00
2022-09-09T07:41:49.137Z,15.00
2022-09-09T07:44:25.845Z,14.90
2022-09-09T07:46:53.703Z,15.00
2022-09-09T07:49:29.732Z,15.00
2022-09-09T07:51:58.375Z,15.10
2022-09-09T07:54:27.346Z,15.00
2022-09-09T07:56:55.708Z,15.00
2022-09-09T07:59:22.776Z,15.00
2022-09-09T08:01:54.681Z,15.00
2022-09-09T08:04:24.415Z,15.00
2022-09-09T08:06:58.861Z,15.00
2022-09-09T08:09:30.002Z,15.00
2022-09-09T08:11:58.180Z,15.10
2022-09-09T08:14:26.234Z,15.20
2022-09-09T08:16:57.362Z,15.30
2022-09-09T08:19:26.803Z,15.20
2022-09-09T08:21:55.249Z,15.20
2022-09-09T08:24:22.191Z,15.20
2022-09-09T08:26:50.599Z,15.20
2022-09-09T08:29:19.559Z,15.10
2022-09-09T08:32:00.058Z,15.10
2022-09-09T08:34:28.213Z,15.10
2022-09-09T08:36:55.858Z,15.20
2022-09-09T08:39:24.589Z,15.20
2022-09-09T08:42:19.066Z,15.20
2022-09-09T08:45:20.964Z,15.20
2022-09-09T08:48:05.154Z,15.30
2022-09-09T08:50:42.478Z,15.20
2022-09-09T08:53:24.366Z,15.20
2022-09-09T08:55:57.158Z,15.30
2022-09-09T08:58:30.465Z,15.40
2022-09-09T09:01:23.313Z,15.30
2022-09-09T09:04:26.606Z,15.40
2022-09-09T09:07:12.578Z,15.30
2022-09-09T09:10:30.548Z,15.40
2022-09-09T09:12:59.110Z,15.50
2022-09-09T09:15:37.390Z,15.60
2022-09-09T09:18:07.088Z,15.60
2022-09-09T09:21:05.065Z,15.70
2022-09-09T09:23:49.334Z,15.70
2022-09-09T09:26:19.119Z,15.70
2022-09-09T09:28:46.533Z,15.60
2022-09-09T09:31:15.218Z,15.70
2022-09-09T09:33:51.972Z,15.70
2022-09-09T09:36:19.430Z,15.80
2022-09-09T09:41:46.849Z,15.90
2022-09-09T09:44:32.997Z,16.00
2022-09-09T09:47:09.689Z,16.20
2022-09-09T09:49:52.464Z,16.40
2022-09-09T09:52:26.777Z,16.30
2022-09-09T09:54:57.530Z,16.50
2022-09-09T09:57:30.347Z,16.70
2022-09-09T10:00:25.796Z,16.80
2022-09-09T10:02:54.369Z,17.00
2022-09-09T10:05:27.646Z,16.90
2022-09-09T10:08:14.993Z,16.70
2022-09-09T10:10:52.846Z,16.80
2022-09-09T10:13:50.564Z,16.60
2022-09-09T10:16:40.447Z,16.70
2022-09-09T10:19:20.345Z,16.80
2022-09-09T10:22:19.109Z,17.00
2022-09-09T10:25:00.016Z,16.90
2022-09-09T10:27:45.349Z,16.80
2022-09-09T10:30:57.519Z,16.80
2022-09-09T10:33:38.618Z,16.70
2022-09-09T10:36:26.678Z,16.60
2022-09-09T10:39:11.867Z,16.80
2022-09-09T10:42:10.439Z,17.00
2022-09-09T10:45:02.865Z,17.10
2022-09-09T10:47:50.409Z,17.00
2022-09-09T10:51:00.347Z,16.90
2022-09-09T10:53:39.483Z,16.90
2022-09-09T10:56:13.297Z,16.80
2022-09-09T10:58:54.879Z,16.90
2022-09-09T11:01:28.447Z,16.90
2022-09-09T11:04:06.498Z,16.90
2022-09-09T11:06:40.327Z,17.00
2022-09-09T11:09:18.268Z,17.20
2022-09-09T11:11:57.562Z,17.40
2022-09-09T11:14:37.486Z,17.50
2022-09-09T11:17:16.386Z,17.70
2022-09-09T11:19:45.876Z,17.90
2022-09-09T11:22:16.561Z,18.00
2022-09-09T11:24:51.691Z,17.90
2022-09-09T11:27:26.539Z,17.80
2022-09-09T11:30:13.932Z,18.00
2022-09-09T11:33:14.544Z,17.70
2022-09-09T11:36:07.918Z,17.80
2022-09-09T11:38:51.773Z,18.00
2022-09-09T11:41:22.707Z,17.80
2022-09-09T11:43:53.273Z,17.70
2022-09-09T11:46:37.541Z,17.70
2022-09-09T11:49:10.785Z,18.00
2022-09-09T11:51:38.529Z,17.90
2022-09-09T11:54:34.565Z,17.90
2022-09-09T11:57:05.825Z,18.10
2022-09-09T11:59:34.487Z,18.10
2022-09-09T12:02:13.302Z,18.30
2022-09-09T12:05:11.562Z,18.30
2022-09-09T12:07:50.739Z,18.30
2022-09-09T12:10:33.864Z,18.60
2022-09-09T12:13:21.337Z,18.60
2022-09-09T12:15:54.852Z,18.50
2022-09-09T12:18:36.057Z,18.60
2022-09-09T12:21:35.463Z,18.60
2022-09-09T12:24:11.724Z,18.70
2022-09-09T12:26:56.815Z,18.80
2022-09-09T12:29:50.184Z,18.50
2022-09-09T12:32:24.167Z,18.40
2022-09-09T12:35:01.119Z,18.60
2022-09-09T12:37:43.357Z,18.70
2022-09-09T12:40:25.855Z,18.70
2022-09-09T12:42:56.998Z,18.60
2022-09-09T12:45:27.313Z,18.50
2022-09-09T12:48:13.117Z,18.20
2022-09-09T12:50:49.044Z,17.90
2022-09-09T12:53:37.005Z,17.80
2022-09-09T12:56:21.736Z,17.90
2022-09-09T12:58:52.780Z,18.10
2022-09-09T13:01:34.427Z,18.10
2022-09-09T13:04:01.933Z,18.20
2022-09-09T13:06:33.102Z,18.00
2022-09-09T13:09:04.019Z,17.70
2022-09-09T13:11:48.171Z,17.80
2022-09-09T13:14:21.259Z,17.60
2022-09-09T13:16:58.615Z,17.50
2022-09-09T13:19:30.509Z,17.60
2022-09-09T13:21:58.399Z,17.70
2022-09-09T13:24:32.205Z,17.80
2022-09-09T13:27:27.775Z,17.80
2022-09-09T13:30:00.688Z,17.80
2022-09-09T13:32:28.976Z,17.60
2022-09-09T13:35:02.446Z,17.80
2022-09-09T13:37:38.805Z,17.70
2022-09-09T13:40:08.183Z,17.90
2022-09-09T13:42:43.703Z,17.80
2022-09-09T13:45:27.840Z,17.90
2022-09-09T13:47:57.141Z,18.00
2022-09-09T13:50:30.020Z,17.90
2022-09-09T13:53:00.338Z,17.70
2022-09-09T13:55:30.856Z,17.50
2022-09-09T13:58:04.332Z,17.30
2022-09-09T14:00:35.177Z,17.20
2022-09-09T14:03:03.259Z,17.30
2022-09-09T14:05:34.058Z,17.40
2022-09-09T14:08:05.663Z,17.40
2022-09-09T14:10:33.390Z,17.30
2022-09-09T14:13:04.465Z,17.20
2022-09-09T14:15:33.478Z,17.30
2022-09-09T14:18:01.125Z,17.50
2022-09-09T14:20:29.920Z,17.70
2022-09-09T14:23:03.241Z,17.80
2022-09-09T14:25:32.686Z,17.60
2022-09-09T14:28:01.403Z,17.40
2022-09-09T14:30:29.761Z,17.60
2022-09-09T14:32:58.359Z,17.50
2022-09-09T14:35:29.079Z,17.30
2022-09-09T14:37:57.561Z,17.30
2022-09-09T14:40:24.923Z,17.30
2022-09-09T14:42:54.442Z,17.40
2022-09-09T14:45:24.254Z,17.40
2022-09-09T14:47:51.907Z,17.40
2022-09-09T14:50:21.114Z,17.50
2022-09-09T14:52:48.932Z,17.40
2022-09-09T14:55:20.278Z,17.50
2022-09-09T14:57:48.764Z,17.40
2022-09-09T15:00:17.321Z,17.40
2022-09-09T15:02:45.857Z,17.40
2022-09-09T15:05:14.342Z,17.30
2022-09-09T15:07:43.617Z,17.20
2022-09-09T15:10:12.186Z,17.20
2022-09-09T15:12:39.949Z,17.00
2022-09-09T15:15:09.570Z,17.00
2022-09-09T15:17:37.057Z,17.00
2022-09-09T15:20:06.929Z,16.90
2022-09-09T15:22:38.415Z,16.80
2022-09-09T15:25:07.165Z,16.70
2022-09-09T15:27:35.542Z,16.60
2022-09-09T15:30:05.389Z,16.50
2022-09-09T15:32:36.085Z,16.50
2022-09-09T15:35:03.171Z,16.30
2022-09-09T15:37:30.999Z,16.20
2022-09-09T15:40:00.973Z,16.10
2022-09-09T15:42:31.082Z,16.10
2022-09-09T15:44:59.106Z,16.10
2022-09-09T15:47:26.078Z,16.10
2022-09-09T15:49:54.872Z,16.00
2022-09-09T15:52:23.318Z,15.90
2022-09-09T15:54:52.647Z,15.90
2022-09-09T15:57:19.770Z,15.80
2022-09-09T15:59:49.341Z,15.80
2022-09-09T16:02:16.981Z,15.70
2022-09-09T16:04:45.717Z,15.60
2022-09-09T16:07:13.283Z,15.60
2022-09-09T16:09:41.516Z,15.60
2022-09-09T16:12:10.963Z,15.60
2022-09-09T16:14:39.860Z,15.60
2022-09-09T16:17:07.559Z,15.50
2022-09-09T16:19:37.320Z,15.50
2022-09-09T16:22:05.794Z,15.50
2022-09-09T16:24:33.801Z,15.40
2022-09-09T16:27:01.474Z,15.40
2022-09-09T16:29:29.453Z,15.40
2022-09-09T16:32:03.267Z,15.40
2022-09-09T16:34:30.989Z,15.30
2022-09-09T16:36:59.799Z,15.40
2022-09-09T16:39:28.732Z,15.40
2022-09-09T16:41:56.916Z,15.30
2022-09-09T16:44:27.151Z,15.30
2022-09-09T16:47:00.501Z,15.30
2022-09-09T16:49:29.500Z,15.30
2022-09-09T16:51:59.715Z,15.20
2022-09-09T16:54:28.264Z,15.20
2022-09-09T16:56:56.321Z,15.20
2022-09-09T16:59:24.671Z,15.20
2022-09-09T17:01:53.609Z,15.10
2022-09-09T17:04:27.734Z,15.10
2022-09-09T17:06:56.054Z,15.00
2022-09-09T17:09:28.513Z,14.90
2022-09-09T17:11:56.893Z,14.90
2022-09-09T17:14:24.917Z,14.80
2022-09-09T17:16:53.202Z,14.90
2022-09-09T17:19:20.789Z,14.80
2022-09-09T17:22:15.033Z,14.80
2022-09-09T17:24:39.566Z,14.70
2022-09-09T17:27:08.336Z,14.60
2022-09-09T17:29:37.260Z,14.60
2022-09-09T17:32:06.473Z,14.60
2022-09-09T17:34:34.153Z,14.50
2022-09-09T17:37:03.069Z,14.50
2022-09-09T17:39:29.970Z,14.50
2022-09-09T17:41:56.916Z,14.50
2022-09-09T17:44:25.207Z,14.50
2022-09-09T17:46:53.443Z,14.40
2022-09-09T17:49:21.481Z,14.40
2022-09-09T17:51:48.560Z,14.30
2022-09-09T17:54:19.947Z,14.20
2022-09-09T17:56:49.705Z,14.10
2022-09-09T17:59:19.364Z,14.10
2022-09-09T18:01:50.870Z,14.10
2022-09-09T18:04:20.462Z,14.10
2022-09-09T18:06:51.222Z,14.10
2022-09-09T18:09:23.403Z,14.00
2022-09-09T18:11:55.711Z,14.00
2022-09-09T18:14:31.086Z,13.90
2022-09-09T18:17:02.313Z,13.90
2022-09-09T18:19:33.134Z,13.90
2022-09-09T18:22:03.988Z,13.90
2022-09-09T18:24:33.213Z,13.90
2022-09-09T18:27:01.150Z,13.80
2022-09-09T18:29:31.121Z,13.80
2022-09-09T18:31:58.854Z,13.80
2022-09-09T18:34:28.983Z,13.80
2022-09-09T18:36:58.052Z,13.70
2022-09-09T18:39:29.784Z,13.70
2022-09-09T18:42:01.510Z,13.60
2022-09-09T18:44:32.817Z,13.60
2022-09-09T18:47:01.933Z,13.60
2022-09-09T18:49:29.936Z,13.60
2022-09-09T18:51:59.274Z,13.50
2022-09-09T18:54:30.392Z,13.60
2022-09-09T18:57:00.882Z,13.50
2022-09-09T18:59:30.609Z,13.50
2022-09-09T19:01:58.706Z,13.50
2022-09-09T19:04:27.723Z,13.50
2022-09-09T19:06:59.630Z,13.50
2022-09-09T19:09:33.812Z,13.50
2022-09-09T19:12:02.013Z,13.40
2022-09-09T19:14:30.394Z,13.40
2022-09-09T19:16:58.401Z,13.40
2022-09-09T19:19:29.335Z,13.40
2022-09-09T19:21:57.806Z,13.40
2022-09-09T19:24:32.222Z,13.40
2022-09-09T19:27:03.109Z,13.30
2022-09-09T19:29:34.245Z,13.30
2022-09-09T19:34:52.714Z,13.30
2022-09-09T19:37:21.038Z,13.40
2022-09-09T19:39:50.766Z,13.30
2022-09-09T19:42:20.059Z,13.30
2022-09-09T19:44:49.332Z,13.30
2022-09-09T19:47:18.833Z,13.30
2022-09-09T19:49:47.961Z,13.30
2022-09-09T19:52:17.614Z,13.20
2022-09-09T19:54:47.027Z,13.20
2022-09-09T19:57:16.228Z,13.20
2022-09-09T19:59:44.048Z,13.20
2022-09-09T20:02:15.922Z,13.20
2022-09-09T20:04:44.612Z,13.10
2022-09-09T20:07:14.882Z,13.10
2022-09-09T20:09:42.630Z,13.10
2022-09-09T20:12:11.185Z,13.10
2022-09-09T20:14:39.804Z,13.10
2022-09-09T20:17:09.054Z,13.00
2022-09-09T20:19:36.581Z,12.90
2022-09-09T20:22:04.418Z,12.90
2022-09-09T20:24:32.000Z,12.90
2022-09-09T20:26:59.558Z,12.80
2022-09-09T20:29:27.966Z,12.80
2022-09-09T20:31:55.455Z,12.80
2022-09-09T20:34:22.909Z,12.80
2022-09-09T20:36:51.092Z,12.70
2022-09-09T20:39:20.897Z,12.70
2022-09-09T20:41:49.732Z,12.70
2022-09-09T20:44:20.089Z,12.80
2022-09-09T20:46:51.901Z,12.80
2022-09-09T20:49:22.111Z,12.70
2022-09-09T20:51:51.884Z,12.70
2022-09-09T20:54:25.966Z,12.70
2022-09-09T20:56:59.014Z,12.70
2022-09-09T20:59:30.812Z,12.70
2022-09-09T21:02:00.869Z,12.70
2022-09-09T21:04:29.569Z,12.70
2022-09-09T21:06:57.829Z,12.70
2022-09-09T21:09:26.277Z,12.60
2022-09-09T21:11:55.254Z,12.60
2022-09-09T21:14:23.808Z,12.60
2022-09-09T21:16:52.121Z,12.60
2022-09-09T21:19:19.662Z,12.60
2022-09-09T21:21:47.993Z,12.50
2022-09-09T21:24:16.037Z,12.40
2022-09-09T21:26:43.823Z,12.40
2022-09-09T21:29:13.168Z,12.30
2022-09-09T21:31:43.215Z,12.30
2022-09-09T21:34:13.339Z,12.20
2022-09-09T21:36:42.228Z,12.20
2022-09-09T21:39:09.105Z,12.10
2022-09-09T21:41:37.397Z,12.10
2022-09-09T21:44:04.297Z,12.00
2022-09-09T21:46:31.955Z,11.90
2022-09-09T21:49:03.517Z,11.80
2022-09-09T21:51:31.773Z,11.80
2022-09-09T21:53:58.706Z,11.80
2022-09-09T21:56:26.818Z,11.70
2022-09-09T21:58:56.890Z,11.80
2022-09-09T22:01:26.788Z,11.70
2022-09-09T22:03:55.126Z,11.70
2022-09-09T22:06:22.700Z,11.70
2022-09-09T22:08:51.737Z,11.70
2022-09-09T22:11:25.382Z,11.60
2022-09-09T22:13:56.062Z,11.60
2022-09-09T22:16:24.019Z,11.50
2022-09-09T22:18:58.095Z,11.50
2022-09-09T22:21:27.321Z,11.50
2022-09-09T22:24:03.207Z,11.40
2022-09-09T22:26:34.702Z,11.40
2022-09-09T22:29:01.751Z,11.40
2022-09-09T22:31:28.822Z,11.40
2022-09-09T22:33:56.510Z,11.40
2022-09-09T22:36:28.725Z,11.40
2022-09-09T22:38:56.817Z,11.40
2022-09-09T22:41:25.102Z,11.40
2022-09-09T22:43:52.003Z,11.50
2022-09-09T22:46:20.100Z,11.40
2022-09-09T22:48:49.445Z,11.40
2022-09-09T22:51:17.313Z,11.40
2022-09-09T22:53:45.356Z,11.40
2022-09-09T22:56:17.229Z,11.40
2022-09-09T22:58:46.709Z,11.40
2022-09-09T23:01:17.974Z,11.40
2022-09-09T23:03:48.227Z,11.40
2022-09-09T23:06:23.786Z,11.30
2022-09-09T23:08:56.151Z,11.30
2022-09-09T23:11:26.340Z,11.30
2022-09-09T23:13:57.048Z,11.30
2022-09-09T23:16:32.906Z,11.30
2022-09-09T23:19:01.233Z,11.30
2022-09-09T23:21:30.371Z,11.20
2022-09-09T23:23:59.914Z,11.30
2022-09-09T23:26:29.895Z,11.30
2022-09-09T23:28:58.671Z,11.30
2022-09-09T23:31:29.945Z,11.40
2022-09-09T23:34:02.030Z,11.40
2022-09-09T23:36:29.723Z,11.30
2022-09-09T23:39:00.136Z,11.30
2022-09-09T23:41:27.755Z,11.30
2022-09-09T23:43:56.416Z,11.20
2022-09-09T23:46:28.445Z,11.20
2022-09-09T23:48:57.930Z,11.30
2022-09-09T23:51:30.178Z,11.20
2022-09-09T23:54:01.905Z,11.20
2022-09-09T23:56:37.014Z,11.20
2022-09-09T23:59:05.853Z,11.30
